Time;durP1;ratioP1;P1;durP2;ratioP2;P2;SDS_P1;SDS_P2;PMS_P1;PMS_P2;Temp;Humidity;BMP_temperature;BMP_pressure;BME280_temperature;BME280_humidity;BME280_pressure;Samples;Min_cycle;Max_cycle;Signal;HPM_P1;HPM_P2
2023/03/31 00:00:11;;;;;;;0.10;0.10;;;7.80;99.90;;;;;;5035997;28;20457;-72
2023/03/31 00:02:40;;;;;;;0.10;0.10;;;7.70;99.90;;;;;;5036013;28;20029;-72
2023/03/31 00:05:07;;;;;;;0.10;0.10;;;7.70;99.90;;;;;;5036445;28;20018;-72
2023/03/31 00:07:32;;;;;;;0.10;0.10;;;7.70;99.90;;;;;;5034484;28;20075;-72
2023/03/31 00:10:00;;;;;;;0.10;0.10;;;7.70;99.90;;;;;;5036151;28;20030;-72
2023/03/31 00:12:26;;;;;;;0.10;0.10;;;7.70;99.90;;;;;;5035203;28;20394;-72
2023/03/31 00:14:52;;;;;;;0.10;0.10;;;7.70;99.90;;;;;;5036082;28;20025;-72
2023/03/31 00:17:17;;;;;;;0.15;0.15;;;7.80;99.90;;;;;;5036200;28;20080;-72
2023/03/31 00:19:43;;;;;;;0.10;0.10;;;7.80;99.90;;;;;;5035547;28;20097;-72
2023/03/31 00:22:09;;;;;;;0.10;0.10;;;7.90;99.90;;;;;;5035895;28;20037;-72
2023/03/31 00:24:35;;;;;;;0.10;0.10;;;7.90;99.90;;;;;;5034343;28;20028;-72
2023/03/31 00:27:02;;;;;;;0.10;0.10;;;7.90;99.90;;;;;;5036128;28;20022;-72
2023/03/31 00:29:28;;;;;;;0.20;0.20;;;8.00;99.90;;;;;;5034540;28;20384;-72
2023/03/31 00:31:54;;;;;;;0.10;0.10;;;8.00;99.90;;;;;;5035220;28;20051;-72
2023/03/31 00:34:20;;;;;;;0.10;0.10;;;8.00;99.90;;;;;;5035376;28;20114;-72
2023/03/31 00:36:48;;;;;;;0.15;0.15;;;8.00;99.90;;;;;;5034428;28;20026;-72
2023/03/31 00:39:17;;;;;;;0.10;0.10;;;8.10;99.90;;;;;;5036063;28;20036;-72
2023/03/31 00:41:43;;;;;;;0.10;0.10;;;8.10;99.90;;;;;;5035752;28;20048;-72
2023/03/31 00:44:28;;;;;;;0.10;0.10;;;8.10;99.90;;;;;;5034897;28;20471;-72
2023/03/31 00:47:14;;;;;;;0.10;0.10;;;8.10;99.90;;;;;;5035934;28;20021;-72
2023/03/31 00:49:45;;;;;;;0.10;0.10;;;8.20;99.90;;;;;;5036085;28;20527;-72
2023/03/31 00:52:17;;;;;;;0.20;0.20;;;8.20;99.90;;;;;;5035551;28;20138;-72
2023/03/31 00:54:46;;;;;;;0.10;0.10;;;8.20;99.90;;;;;;5035568;28;20021;-72
2023/03/31 00:57:15;;;;;;;0.10;0.10;;;8.20;99.90;;;;;;5033628;28;20033;-72
2023/03/31 00:59:49;;;;;;;0.20;0.20;;;8.30;99.90;;;;;;5034064;28;20483;-72
2023/03/31 01:02:16;;;;;;;0.10;0.10;;;8.30;99.90;;;;;;5033822;28;20025;-72
2023/03/31 01:04:49;;;;;;;0.10;0.10;;;8.30;99.90;;;;;;5035479;28;20030;-72
2023/03/31 01:07:24;;;;;;;0.10;0.10;;;8.40;99.90;;;;;;5035779;28;20406;-72
2023/03/31 01:09:53;;;;;;;0.10;0.10;;;8.40;99.90;;;;;;5035851;28;20079;-72
2023/03/31 01:12:20;;;;;;;0.10;0.10;;;8.40;99.90;;;;;;5035500;28;20056;-71
2023/03/31 01:14:48;;;;;;;0.10;0.10;;;8.40;99.90;;;;;;5034842;28;20026;-71
2023/03/31 01:17:17;;;;;;;0.20;0.20;;;8.40;99.90;;;;;;5035128;28;20116;-71
2023/03/31 01:20:00;;;;;;;0.10;0.10;;;8.40;99.90;;;;;;5034943;28;20441;-71
2023/03/31 01:22:59;;;;;;;0.10;0.10;;;8.40;99.90;;;;;;5035392;28;20067;-71
2023/03/31 01:25:41;;;;;;;0.20;0.20;;;8.40;99.90;;;;;;5039031;28;20026;-72
2023/03/31 01:28:45;;;;;;;0.10;0.10;;;8.50;99.90;;;;;;5039464;28;20021;-72
2023/03/31 01:31:14;;;;;;;;;;;8.50;99.90;;;;;;5039280;28;20025;-72
2023/03/31 01:34:04;;;;;;;0.10;0.10;;;8.50;99.90;;;;;;5038796;28;19975;-72
2023/03/31 01:37:08;;;;;;;0.10;0.10;;;8.50;99.90;;;;;;5038645;28;20103;-71
2023/03/31 01:40:07;;;;;;;0.20;0.20;;;8.50;99.90;;;;;;5038934;28;20094;-71
2023/03/31 01:42:42;;;;;;;0.13;0.13;;;8.50;99.90;;;;;;5038602;28;20018;-70
2023/03/31 01:45:32;;;;;;;0.20;0.20;;;8.50;99.90;;;;;;5038610;28;20029;-71
2023/03/31 01:48:20;;;;;;;0.20;0.20;;;8.50;99.90;;;;;;5037239;28;20071;-72
2023/03/31 01:50:51;;;;;;;0.10;0.10;;;8.50;99.90;;;;;;5039213;28;20025;-71
2023/03/31 01:53:42;;;;;;;0.13;0.13;;;8.60;99.90;;;;;;5038355;28;20025;-70
2023/03/31 01:56:21;;;;;;;0.20;0.20;;;8.60;99.90;;;;;;5031942;28;20439;-70
2023/03/31 01:59:01;;;;;;;0.10;0.10;;;8.50;99.90;;;;;;5039083;28;20549;-71
2023/03/31 02:01:52;;;;;;;0.10;0.10;;;8.50;99.90;;;;;;5037115;28;20083;-71
2023/03/31 02:04:22;;;;;;;0.10;0.10;;;8.50;99.90;;;;;;5037096;28;20475;-71
2023/03/31 02:06:55;;;;;;;0.10;0.10;;;8.50;99.90;;;;;;5038360;28;20171;-71
2023/03/31 02:09:24;;;;;;;0.10;0.10;;;8.50;99.90;;;;;;5038975;28;20096;-71
2023/03/31 02:11:52;;;;;;;0.10;0.10;;;8.50;99.90;;;;;;5038592;28;20028;-71
2023/03/31 02:14:23;;;;;;;0.10;0.10;;;8.50;99.90;;;;;;5038097;28;20021;-71
2023/03/31 02:16:57;;;;;;;0.10;0.10;;;8.50;99.90;;;;;;5038433;28;20032;-71
2023/03/31 02:19:25;;;;;;;0.10;0.10;;;8.60;99.90;;;;;;5038528;28;20026;-71
2023/03/31 02:21:53;;;;;;;0.10;0.10;;;8.50;99.90;;;;;;5037630;28;20040;-71
2023/03/31 02:24:21;;;;;;;0.15;0.15;;;8.50;99.90;;;;;;5038278;28;20029;-71
2023/03/31 02:27:08;;;;;;;0.10;0.10;;;8.50;99.90;;;;;;5038061;28;20124;-71
2023/03/31 02:29:34;;;;;;;0.10;0.10;;;8.50;99.90;;;;;;5038326;28;20030;-71
2023/03/31 02:32:21;;;;;;;0.10;0.10;;;8.50;99.90;;;;;;5037753;28;20078;-71
2023/03/31 02:34:47;;;;;;;0.10;0.10;;;8.50;99.90;;;;;;5037590;28;20084;-70
2023/03/31 02:37:13;;;;;;;0.10;0.10;;;8.50;99.90;;;;;;5038122;28;20037;-70
2023/03/31 02:39:42;;;;;;;0.10;0.10;;;8.50;99.90;;;;;;5037644;28;20029;-71
2023/03/31 02:42:10;;;;;;;0.00;0.00;;;8.50;99.90;;;;;;5037305;28;20124;-71
2023/03/31 02:44:37;;;;;;;0.10;0.10;;;8.50;99.90;;;;;;5038101;28;20021;-71
2023/03/31 02:47:17;;;;;;;0.10;0.10;;;8.50;99.90;;;;;;5037754;28;20474;-71
2023/03/31 02:49:47;;;;;;;0.10;0.10;;;8.50;99.90;;;;;;5037973;28;20041;-71
2023/03/31 02:52:27;;;;;;;0.20;0.20;;;8.50;99.90;;;;;;5037499;28;20026;-71
2023/03/31 02:55:01;;;;;;;0.20;0.20;;;8.50;99.90;;;;;;5037606;28;20069;-71
2023/03/31 02:58:11;;;;;;;0.10;0.10;;;8.50;99.90;;;;;;5036292;28;20048;-72
2023/03/31 03:01:13;;;;;;;0.10;0.10;;;8.50;99.90;;;;;;5037162;28;20035;-72
2023/03/31 03:03:57;;;;;;;0.20;0.20;;;8.50;99.90;;;;;;5037491;28;20372;-72
2023/03/31 03:06:41;;;;;;;0.17;0.17;;;8.50;99.90;;;;;;5037097;28;20028;-72
2023/03/31 03:09:44;;;;;;;0.10;0.10;;;8.50;99.90;;;;;;5037452;28;20084;-72
2023/03/31 03:12:23;;;;;;;0.10;0.10;;;8.50;99.90;;;;;;5030450;28;20065;-72
2023/03/31 03:14:51;;;;;;;0.10;0.10;;;8.50;99.90;;;;;;5037448;28;20087;-72
2023/03/31 03:17:27;;;;;;;0.15;0.15;;;8.40;99.90;;;;;;5036681;28;20028;-72
2023/03/31 03:20:00;;;;;;;0.10;0.10;;;8.50;99.90;;;;;;5036990;28;20055;-72
2023/03/31 03:22:25;;;;;;;0.10;0.10;;;8.40;99.90;;;;;;5036721;28;20109;-72
2023/03/31 03:24:51;;;;;;;0.10;0.10;;;8.40;99.90;;;;;;5036972;28;20060;-72
2023/03/31 03:27:17;;;;;;;0.17;0.17;;;8.40;99.90;;;;;;5037052;28;20028;-72
2023/03/31 03:29:43;;;;;;;0.10;0.10;;;8.40;99.90;;;;;;5037344;28;20079;-72
2023/03/31 03:32:09;;;;;;;0.15;0.15;;;8.40;99.90;;;;;;5036209;28;20108;-72
2023/03/31 03:34:35;;;;;;;0.10;0.10;;;8.40;99.90;;;;;;5036100;28;20052;-72
2023/03/31 03:37:01;;;;;;;0.10;0.10;;;8.40;99.90;;;;;;5036938;28;20026;-72
2023/03/31 03:39:26;;;;;;;0.10;0.10;;;8.40;99.90;;;;;;5037048;28;20372;-72
2023/03/31 03:41:52;;;;;;;0.10;0.10;;;8.40;99.90;;;;;;5036704;28;20029;-72
2023/03/31 03:44:18;;;;;;;0.10;0.10;;;8.50;99.90;;;;;;5036148;28;20025;-72
2023/03/31 03:46:43;;;;;;;0.10;0.10;;;8.40;99.90;;;;;;5035630;28;20029;-72
2023/03/31 03:49:09;;;;;;;0.10;0.10;;;8.40;99.90;;;;;;5036584;28;20029;-72
2023/03/31 03:51:34;;;;;;;0.10;0.10;;;8.50;99.90;;;;;;5036745;28;20437;-72
2023/03/31 03:54:02;;;;;;;0.20;0.20;;;8.40;99.90;;;;;;5035818;28;20116;-72
2023/03/31 03:56:28;;;;;;;0.10;0.10;;;8.50;99.90;;;;;;5035889;28;20025;-72
2023/03/31 03:58:54;;;;;;;0.10;0.10;;;8.50;99.90;;;;;;5035332;28;20029;-72
2023/03/31 04:01:19;;;;;;;0.10;0.10;;;8.50;99.90;;;;;;5035020;28;20030;-72
2023/03/31 04:03:45;;;;;;;0.10;0.10;;;8.50;99.90;;;;;;5036289;28;20033;-72
2023/03/31 04:06:11;;;;;;;0.20;0.20;;;8.50;99.90;;;;;;5035952;28;20083;-72
2023/03/31 04:08:36;;;;;;;0.10;0.10;;;8.50;99.90;;;;;;5034891;28;20025;-72
2023/03/31 04:11:11;;;;;;;0.10;0.10;;;8.50;99.90;;;;;;5035687;28;20040;-72
2023/03/31 04:13:36;;;;;;;0.10;0.10;;;8.50;99.90;;;;;;5036438;28;20025;-72
2023/03/31 04:16:02;;;;;;;0.10;0.10;;;8.50;99.90;;;;;;5036288;28;20060;-72
2023/03/31 04:18:30;;;;;;;0.10;0.10;;;8.50;99.90;;;;;;5035896;28;20033;-72
2023/03/31 04:21:04;;;;;;;0.15;0.15;;;8.40;99.90;;;;;;5033657;28;20505;-72
2023/03/31 04:23:41;;;;;;;0.10;0.10;;;8.40;99.90;;;;;;5035772;28;20108;-72
2023/03/31 04:26:08;;;;;;;0.10;0.10;;;8.40;99.90;;;;;;5035651;28;20017;-72
2023/03/31 04:28:35;;;;;;;0.10;0.10;;;8.40;99.90;;;;;;5035990;28;20029;-72
2023/03/31 04:31:01;;;;;;;0.13;0.13;;;8.40;99.90;;;;;;5036192;28;20048;-72
2023/03/31 04:33:27;;;;;;;0.10;0.10;;;8.40;99.90;;;;;;5035178;28;20034;-72
2023/03/31 04:35:52;;;;;;;0.17;0.17;;;8.40;99.90;;;;;;5035491;28;20072;-72
2023/03/31 04:38:20;;;;;;;0.10;0.10;;;8.40;99.90;;;;;;5035666;28;20032;-72
2023/03/31 04:40:48;;;;;;;0.10;0.10;;;8.40;99.90;;;;;;5036328;28;20100;-72
2023/03/31 04:43:14;;;;;;;0.10;0.10;;;8.30;99.90;;;;;;5035539;28;20108;-72
2023/03/31 04:45:40;;;;;;;0.10;0.10;;;8.30;99.90;;;;;;5032375;28;20018;-72
2023/03/31 04:48:05;;;;;;;0.17;0.17;;;8.40;99.90;;;;;;5014098;28;20024;-72
2023/03/31 04:50:31;;;;;;;0.10;0.10;;;8.30;99.90;;;;;;5014731;28;20025;-72
2023/03/31 04:52:57;;;;;;;0.10;0.10;;;8.30;99.90;;;;;;5014803;28;20022;-72
2023/03/31 04:55:23;;;;;;;0.10;0.10;;;8.40;99.90;;;;;;5015356;28;20021;-72
2023/03/31 04:57:48;;;;;;;0.10;0.10;;;8.30;99.90;;;;;;5026843;28;20530;-72
2023/03/31 05:00:14;;;;;;;0.10;0.10;;;8.30;99.90;;;;;;5035416;28;20390;-72
2023/03/31 05:02:40;;;;;;;0.10;0.10;;;8.30;99.90;;;;;;5035771;28;20098;-72
2023/03/31 05:05:06;;;;;;;0.10;0.10;;;8.30;99.90;;;;;;5035405;28;20037;-72
2023/03/31 05:07:31;;;;;;;0.10;0.10;;;8.30;99.90;;;;;;5035026;28;20068;-72
2023/03/31 05:10:02;;;;;;;0.10;0.10;;;8.30;99.90;;;;;;5034955;28;20030;-72
2023/03/31 05:12:27;;;;;;;0.10;0.10;;;8.20;99.90;;;;;;5035416;28;20080;-72
2023/03/31 05:14:53;;;;;;;0.10;0.10;;;8.20;99.90;;;;;;5035494;28;20025;-72
2023/03/31 05:17:18;;;;;;;0.10;0.10;;;8.30;99.90;;;;;;5035415;28;20445;-72
2023/03/31 05:19:44;;;;;;;0.10;0.10;;;8.30;99.90;;;;;;5035062;28;20471;-72
2023/03/31 05:22:09;;;;;;;0.17;0.17;;;8.30;99.90;;;;;;5034246;28;20029;-72
2023/03/31 05:24:35;;;;;;;0.10;0.10;;;8.30;99.90;;;;;;5035492;28;20029;-72
2023/03/31 05:27:01;;;;;;;0.10;0.10;;;8.30;99.90;;;;;;5035402;28;20044;-72
2023/03/31 05:29:26;;;;;;;0.10;0.10;;;8.30;99.90;;;;;;5035269;28;20025;-72
2023/03/31 05:31:55;;;;;;;0.10;0.10;;;8.30;99.90;;;;;;5034998;28;20029;-72
2023/03/31 05:34:20;;;;;;;0.10;0.10;;;8.30;99.90;;;;;;5081647;23;20412;-78
2023/03/31 05:36:52;;;;;;;0.10;0.10;;;8.30;99.90;;;;;;5033018;28;20025;-78
2023/03/31 05:39:18;;;;;;;0.20;0.20;;;8.30;99.90;;;;;;5017726;28;20017;-77
2023/03/31 05:41:43;;;;;;;0.17;0.17;;;8.30;99.90;;;;;;5032238;28;20399;-76
2023/03/31 05:44:09;;;;;;;0.10;0.10;;;8.30;99.90;;;;;;5061041;23;20061;-77
2023/03/31 05:46:34;;;;;;;0.20;0.20;;;8.40;99.90;;;;;;5031586;28;20029;-77
2023/03/31 05:49:01;;;;;;;0.10;0.10;;;8.30;99.90;;;;;;5032488;28;20018;-76
2023/03/31 05:51:27;;;;;;;0.20;0.20;;;8.30;99.90;;;;;;5032168;28;20502;-76
2023/03/31 05:53:52;;;;;;;0.10;0.10;;;8.40;99.90;;;;;;5032083;28;20022;-75
2023/03/31 05:56:18;;;;;;;0.10;0.10;;;8.40;99.90;;;;;;5031215;28;20033;-75
2023/03/31 05:58:43;;;;;;;0.20;0.20;;;8.30;99.90;;;;;;5032655;28;20029;-75
2023/03/31 06:01:12;;;;;;;0.10;0.10;;;8.30;99.90;;;;;;5030528;28;20071;-76
2023/03/31 06:03:40;;;;;;;0.10;0.10;;;8.30;99.90;;;;;;5032283;28;20030;-76
2023/03/31 06:06:07;;;;;;;0.10;0.10;;;8.30;99.90;;;;;;5032558;28;20032;-76
2023/03/31 06:08:33;;;;;;;0.10;0.10;;;8.30;99.90;;;;;;5032378;28;20030;-77
2023/03/31 06:10:59;;;;;;;0.10;0.10;;;8.40;99.90;;;;;;5036154;28;20024;-77
2023/03/31 06:13:26;;;;;;;0.10;0.10;;;8.40;99.90;;;;;;5035217;28;20486;-76
2023/03/31 06:15:53;;;;;;;0.10;0.10;;;8.30;99.90;;;;;;5035899;28;20025;-77
2023/03/31 06:18:19;;;;;;;0.10;0.10;;;8.30;99.90;;;;;;5036220;28;20037;-77
2023/03/31 06:20:44;;;;;;;0.10;0.10;;;8.30;99.90;;;;;;5034418;28;20029;-77
2023/03/31 06:23:10;;;;;;;0.10;0.10;;;8.30;99.90;;;;;;5035413;28;20032;-77
2023/03/31 06:25:37;;;;;;;0.10;0.10;;;8.40;99.90;;;;;;5035803;28;20038;-76
2023/03/31 06:28:06;;;;;;;0.10;0.10;;;8.40;99.90;;;;;;5035303;28;20036;-77
2023/03/31 06:30:32;;;;;;;0.10;0.10;;;8.40;99.90;;;;;;5035827;28;20022;-76
2023/03/31 06:32:58;;;;;;;0.10;0.10;;;8.50;99.90;;;;;;5033917;28;20040;-77
2023/03/31 06:35:24;;;;;;;0.10;0.10;;;8.50;99.90;;;;;;5035462;28;20108;-77
2023/03/31 06:37:49;;;;;;;0.10;0.10;;;8.50;99.90;;;;;;5035346;28;20120;-77
2023/03/31 06:40:15;;;;;;;0.10;0.10;;;8.40;99.90;;;;;;5035088;28;20443;-77
2023/03/31 06:42:40;;;;;;;0.10;0.10;;;8.50;99.90;;;;;;5034315;28;20108;-77
2023/03/31 06:45:07;;;;;;;0.10;0.10;;;8.50;99.90;;;;;;5035600;28;20029;-77
2023/03/31 06:47:32;;;;;;;0.10;0.10;;;8.50;99.90;;;;;;5035052;28;20037;-77
2023/03/31 06:49:58;;;;;;;0.10;0.10;;;8.50;99.90;;;;;;5035586;28;20021;-77
2023/03/31 06:52:23;;;;;;;0.10;0.10;;;8.60;99.90;;;;;;5035388;28;20093;-77
2023/03/31 06:54:49;;;;;;;0.10;0.10;;;8.60;99.90;;;;;;5170712;23;20049;-77
2023/03/31 06:57:15;;;;;;;0.10;0.10;;;8.60;99.90;;;;;;5035506;28;20017;-77
2023/03/31 06:59:40;;;;;;;0.10;0.10;;;8.60;99.90;;;;;;5034172;28;20017;-77
2023/03/31 07:02:06;;;;;;;0.10;0.10;;;8.60;99.90;;;;;;5034925;28;20025;-77
2023/03/31 07:04:31;;;;;;;0.10;0.10;;;8.70;99.90;;;;;;5034660;28;20049;-77
2023/03/31 07:06:58;;;;;;;0.20;0.20;;;8.70;99.90;;;;;;5035090;28;20106;-77
2023/03/31 07:09:23;;;;;;;0.10;0.10;;;8.70;99.90;;;;;;5035344;28;20103;-77
2023/03/31 07:11:49;;;;;;;0.10;0.10;;;8.70;99.90;;;;;;5035066;28;20065;-77
2023/03/31 07:14:14;;;;;;;0.13;0.13;;;8.70;99.90;;;;;;5035215;28;20035;-77
2023/03/31 07:16:40;;;;;;;0.10;0.10;;;8.80;99.90;;;;;;5033400;28;20079;-77
2023/03/31 07:19:06;;;;;;;0.10;0.10;;;8.90;99.90;;;;;;5034708;28;20457;-77
2023/03/31 07:21:33;;;;;;;0.10;0.10;;;8.90;99.90;;;;;;5035194;28;20056;-77
2023/03/31 07:23:58;;;;;;;0.10;0.10;;;9.00;99.90;;;;;;5042480;23;20053;-77
2023/03/31 07:26:24;;;;;;;0.08;0.08;;;9.00;99.90;;;;;;5035455;28;20390;-77
2023/03/31 07:28:50;;;;;;;0.10;0.10;;;9.00;99.90;;;;;;5017485;28;20026;-77
2023/03/31 07:31:17;;;;;;;0.10;0.10;;;9.00;99.90;;;;;;5034431;28;20043;-77
2023/03/31 07:33:45;;;;;;;0.10;0.10;;;9.00;99.90;;;;;;5034818;28;20177;-77
2023/03/31 07:36:10;;;;;;;0.10;0.10;;;9.10;99.90;;;;;;5017038;28;20108;-76
2023/03/31 07:38:36;;;;;;;0.10;0.10;;;9.10;99.90;;;;;;5017058;28;20029;-76
2023/03/31 07:41:02;;;;;;;0.10;0.10;;;9.10;99.90;;;;;;5035241;28;20479;-77
2023/03/31 07:43:27;;;;;;;0.10;0.10;;;9.10;99.90;;;;;;5058154;23;20033;-78
2023/03/31 07:46:03;;;;;;;0.10;0.10;;;9.10;99.90;;;;;;5032986;28;20037;-78
2023/03/31 07:48:39;;;;;;;0.10;0.10;;;9.10;99.90;;;;;;5034656;28;20025;-77
2023/03/31 07:51:17;;;;;;;0.10;0.10;;;9.10;99.90;;;;;;5015375;28;20089;-78
2023/03/31 07:54:03;;;;;;;0.10;0.10;;;9.20;99.90;;;;;;5014844;28;20028;-77
2023/03/31 07:56:34;;;;;;;0.20;0.20;;;9.10;99.90;;;;;;5014697;28;20041;-77
2023/03/31 07:59:00;;;;;;;0.10;0.10;;;9.20;99.90;;;;;;5015681;28;20026;-76
2023/03/31 08:01:28;;;;;;;0.10;0.10;;;9.20;99.90;;;;;;5035080;28;20479;-78
2023/03/31 08:03:54;;;;;;;0.10;0.10;;;9.20;99.90;;;;;;5033027;28;20089;-77
2023/03/31 08:06:22;;;;;;;0.10;0.10;;;9.10;99.90;;;;;;5034359;28;20040;-78
2023/03/31 08:08:48;;;;;;;0.20;0.20;;;9.10;99.90;;;;;;5033969;28;20049;-77
2023/03/31 08:11:15;;;;;;;0.10;0.10;;;9.00;99.90;;;;;;5033843;28;20018;-78
2023/03/31 08:13:43;;;;;;;0.10;0.10;;;9.10;99.90;;;;;;5035287;28;20029;-78
2023/03/31 08:16:09;;;;;;;0.20;0.20;;;9.10;99.90;;;;;;5035140;28;20079;-77
2023/03/31 08:18:34;;;;;;;0.10;0.10;;;9.20;99.90;;;;;;5033962;28;20112;-77
2023/03/31 08:21:00;;;;;;;0.10;0.10;;;9.20;99.90;;;;;;5034191;28;20025;-77
2023/03/31 08:23:28;;;;;;;0.20;0.20;;;9.20;99.90;;;;;;5032499;28;20081;-77
2023/03/31 08:25:53;;;;;;;0.10;0.10;;;9.30;99.90;;;;;;5033158;28;20399;-77
2023/03/31 08:28:19;;;;;;;0.13;0.13;;;9.40;99.90;;;;;;5032816;28;20022;-77
2023/03/31 08:30:45;;;;;;;0.10;0.10;;;9.50;99.90;;;;;;5034074;28;20029;-77
2023/03/31 08:33:13;;;;;;;0.10;0.10;;;9.60;99.90;;;;;;5032574;28;20032;-78
2023/03/31 08:35:39;;;;;;;0.10;0.10;;;9.80;99.90;;;;;;5040132;22;20041;-76
2023/03/31 08:38:05;;;;;;;0.10;0.10;;;9.80;99.90;;;;;;5033370;28;20091;-77
2023/03/31 08:40:31;;;;;;;0.10;0.10;;;9.70;99.90;;;;;;5034103;28;20076;-77
2023/03/31 08:43:04;;;;;;;0.10;0.10;;;9.70;99.90;;;;;;5033902;28;20029;-77
2023/03/31 08:45:34;;;;;;;0.10;0.10;;;9.70;99.90;;;;;;5033375;28;20040;-77
2023/03/31 08:48:27;;;;;;;0.10;0.10;;;9.60;99.90;;;;;;5033475;28;20061;-77
2023/03/31 08:51:06;;;;;;;0.10;0.10;;;9.70;99.90;;;;;;5033578;28;20025;-77
2023/03/31 08:53:38;;;;;;;0.20;0.20;;;9.70;99.90;;;;;;5032041;28;20025;-77
2023/03/31 08:56:08;;;;;;;0.15;0.15;;;9.70;99.90;;;;;;5033675;28;20479;-76
2023/03/31 08:58:40;;;;;;;0.15;0.15;;;9.70;99.90;;;;;;5033024;28;20068;-77
2023/03/31 09:01:30;;;;;;;0.10;0.10;;;9.70;99.90;;;;;;5033545;28;20030;-77
2023/03/31 09:04:07;;;;;;;0.10;0.10;;;9.70;99.90;;;;;;5031806;28;20037;-77
2023/03/31 09:06:41;;;;;;;0.10;0.10;;;9.80;99.90;;;;;;5033816;28;20109;-77
2023/03/31 09:09:13;;;;;;;0.10;0.10;;;9.80;99.90;;;;;;5033781;28;20025;-77
2023/03/31 09:11:51;;;;;;;0.15;0.15;;;9.80;99.90;;;;;;5032466;28;20044;-76
2023/03/31 09:14:24;;;;;;;0.10;0.10;;;9.80;99.90;;;;;;5032929;28;20029;-76
2023/03/31 09:17:12;;;;;;;0.20;0.20;;;9.80;99.90;;;;;;5032097;28;20036;-76
2023/03/31 09:19:46;;;;;;;0.10;0.10;;;9.80;99.90;;;;;;5031908;28;20310;-76
2023/03/31 09:22:19;;;;;;;0.10;0.10;;;9.80;99.90;;;;;;5033173;28;20026;-76
2023/03/31 09:24:54;;;;;;;0.20;0.20;;;9.90;99.90;;;;;;5032616;28;20022;-76
2023/03/31 09:27:21;;;;;;;0.10;0.10;;;9.90;99.90;;;;;;5033328;28;20021;-76
2023/03/31 09:29:51;;;;;;;0.10;0.10;;;9.90;99.90;;;;;;5032829;28;20053;-76
2023/03/31 09:32:27;;;;;;;0.10;0.10;;;9.90;99.90;;;;;;5033073;28;20076;-76
2023/03/31 09:34:59;;;;;;;0.10;0.10;;;10.00;99.90;;;;;;5032922;28;20513;-75
2023/03/31 09:37:28;;;;;;;0.10;0.10;;;10.10;99.90;;;;;;5032280;28;20080;-76
2023/03/31 09:39:55;;;;;;;0.10;0.10;;;10.20;99.90;;;;;;5033051;28;20038;-76
2023/03/31 09:42:20;;;;;;;0.20;0.20;;;10.30;99.90;;;;;;5031276;28;20055;-76
2023/03/31 09:44:48;;;;;;;0.20;0.20;;;10.30;99.90;;;;;;5041524;23;20068;-76
2023/03/31 09:47:37;;;;;;;0.10;0.10;;;10.40;99.90;;;;;;5036772;28;20096;-76
2023/03/31 09:50:05;;;;;;;0.10;0.10;;;10.50;99.90;;;;;;5018321;28;20080;-75
2023/03/31 09:52:44;;;;;;;0.10;0.10;;;10.50;99.90;;;;;;5018892;28;20052;-76
2023/03/31 09:55:21;;;;;;;0.13;0.13;;;10.50;99.90;;;;;;5018950;28;20040;-76
2023/03/31 09:57:46;;;;;;;0.10;0.10;;;10.40;99.90;;;;;;5036514;28;20438;-76
2023/03/31 10:00:18;;;;;;;0.10;0.10;;;10.30;99.90;;;;;;5036674;28;20021;-76
2023/03/31 10:02:50;;;;;;;0.20;0.20;;;10.40;99.90;;;;;;5036420;28;20030;-76
2023/03/31 10:05:53;;;;;;;0.10;0.10;;;10.40;99.90;;;;;;5050579;23;20077;-76
2023/03/31 10:08:25;;;;;;;0.10;0.10;;;10.40;99.90;;;;;;4978497;28;20032;-76
2023/03/31 10:10:50;;;;;;;0.10;0.10;;;10.50;99.90;;;;;;5026166;28;20116;-76
2023/03/31 10:13:22;;;;;;;0.20;0.20;;;10.50;99.90;;;;;;5036199;28;20053;-76
2023/03/31 10:15:52;;;;;;;0.10;0.10;;;10.50;99.90;;;;;;5036084;28;20491;-76
2023/03/31 10:18:19;;;;;;;0.10;0.10;;;10.40;99.90;;;;;;5035679;28;20533;-76
2023/03/31 10:20:52;;;;;;;0.10;0.10;;;10.40;99.90;;;;;;5034344;28;20025;-76
2023/03/31 10:25:45;;;;;;;0.10;0.10;;;10.60;99.90;;;;;;5061955;23;20472;-76
2023/03/31 10:28:14;;;;;;;0.20;0.20;;;10.60;99.90;;;;;;5026802;28;20030;-74
2023/03/31 10:30:54;;;;;;;0.10;0.10;;;10.60;99.90;;;;;;5020817;28;20063;-75
2023/03/31 10:33:26;;;;;;;0.20;0.20;;;10.60;99.90;;;;;;5020328;28;20034;-74
2023/03/31 10:35:58;;;;;;;0.10;0.10;;;10.70;99.90;;;;;;5024222;28;20415;-74
2023/03/31 10:38:30;;;;;;;0.10;0.10;;;10.80;99.90;;;;;;5032298;28;20034;-75
2023/03/31 10:40:58;;;;;;;0.10;0.10;;;10.70;99.90;;;;;;5022238;28;20040;-76
2023/03/31 10:43:37;;;;;;;0.10;0.10;;;10.80;99.90;;;;;;5027672;28;20025;-75
2023/03/31 10:46:03;;;;;;;0.10;0.10;;;10.80;99.90;;;;;;5024057;28;20029;-75
2023/03/31 10:48:39;;;;;;;0.10;0.10;;;10.90;99.90;;;;;;5024730;28;20052;-76
2023/03/31 10:51:26;;;;;;;0.10;0.10;;;10.90;99.90;;;;;;5024031;28;20025;-75
2023/03/31 10:54:02;;;;;;;0.10;0.10;;;10.90;99.90;;;;;;5029268;23;20049;-75
2023/03/31 10:56:43;;;;;;;0.10;0.10;;;11.00;99.90;;;;;;5003027;28;20028;-76
2023/03/31 10:59:30;;;;;;;0.10;0.10;;;11.20;99.90;;;;;;5027745;28;20103;-75
2023/03/31 11:02:14;;;;;;;0.13;0.13;;;11.40;99.90;;;;;;5034781;28;20049;-76
2023/03/31 11:04:58;;;;;;;0.20;0.20;;;11.30;99.90;;;;;;5035034;28;20021;-76
2023/03/31 11:07:31;;;;;;;0.20;0.20;;;11.40;99.90;;;;;;5035379;28;20028;-76
2023/03/31 11:10:25;;;;;;;0.20;0.20;;;11.30;99.90;;;;;;5036002;28;20048;-76
2023/03/31 11:13:08;;;;;;;0.10;0.10;;;11.20;99.90;;;;;;5035396;28;20021;-76
2023/03/31 11:16:02;;;;;;;0.10;0.10;;;11.10;99.90;;;;;;5034915;28;20026;-75
2023/03/31 11:18:39;;;;;;;0.10;0.10;;;11.10;99.90;;;;;;5035052;28;20041;-76
2023/03/31 11:21:11;;;;;;;0.20;0.20;;;11.10;99.90;;;;;;5034127;28;20028;-75
2023/03/31 11:23:46;;;;;;;0.10;0.10;;;11.10;99.90;;;;;;5035157;28;20025;-75
2023/03/31 11:26:21;;;;;;;0.10;0.10;;;11.20;99.90;;;;;;5022517;28;20025;-75
2023/03/31 11:29:16;;;;;;;0.10;0.10;;;11.40;99.90;;;;;;5035384;28;20609;-75
2023/03/31 11:31:48;;;;;;;0.10;0.10;;;11.30;99.90;;;;;;5017040;28;20022;-75
2023/03/31 11:34:25;;;;;;;0.10;0.10;;;11.40;99.90;;;;;;5022337;28;20026;-75
2023/03/31 11:37:16;;;;;;;0.10;0.10;;;11.40;99.90;;;;;;5016127;28;20032;-75
2023/03/31 11:40:12;;;;;;;0.10;0.10;;;11.30;99.90;;;;;;5035062;28;20032;-74
2023/03/31 11:42:47;;;;;;;0.20;0.20;;;11.20;99.90;;;;;;5016815;28;20017;-74
2023/03/31 11:45:21;;;;;;;0.10;0.10;;;11.10;99.90;;;;;;5033935;28;20483;-74
2023/03/31 11:47:51;;;;;;;0.10;0.10;;;11.20;99.90;;;;;;5034103;28;20029;-74
2023/03/31 11:50:25;;;;;;;0.10;0.10;;;11.30;99.90;;;;;;5034292;28;20025;-74
2023/03/31 11:53:18;;;;;;;0.20;0.20;;;11.20;99.90;;;;;;5033902;28;20036;-74
2023/03/31 11:55:46;;;;;;;0.10;0.10;;;11.20;99.90;;;;;;5027054;28;20037;-74
2023/03/31 11:58:17;;;;;;;0.10;0.10;;;11.10;99.90;;;;;;5034017;28;20056;-73
2023/03/31 12:00:49;;;;;;;0.10;0.10;;;11.00;99.90;;;;;;5033990;28;20051;-74
2023/03/31 12:05:52;;;;;;;0.10;0.10;;;10.90;99.90;;;;;;5038232;23;20136;-72
2023/03/31 12:08:58;;;;;;;0.20;0.20;;;10.90;99.90;;;;;;5031927;28;20545;-73
2023/03/31 12:11:39;;;;;;;0.10;0.10;;;10.90;99.90;;;;;;5013048;28;20491;-72
2023/03/31 12:14:32;;;;;;;0.10;0.10;;;10.80;99.90;;;;;;5013784;28;20026;-73
2023/03/31 12:17:13;;;;;;;0.10;0.10;;;10.80;99.90;;;;;;5012595;28;20041;-74
2023/03/31 12:19:54;;;;;;;0.10;0.10;;;10.90;99.90;;;;;;5014039;28;20399;-74
2023/03/31 12:22:30;;;;;;;0.15;0.15;;;11.00;99.90;;;;;;5032340;28;20030;-74
2023/03/31 12:24:59;;;;;;;0.10;0.10;;;11.10;99.90;;;;;;5033221;28;20029;-75
2023/03/31 12:27:41;;;;;;;0.10;0.10;;;11.20;99.90;;;;;;5032357;28;20024;-75
2023/03/31 12:30:19;;;;;;;0.10;0.10;;;11.40;99.90;;;;;;5031900;28;20022;-74
2023/03/31 12:32:53;;;;;;;0.10;0.10;;;11.60;99.90;;;;;;5032380;28;20090;-77
2023/03/31 12:35:29;;;;;;;0.10;0.10;;;11.70;99.90;;;;;;5033932;28;20544;-77
2023/03/31 12:38:19;;;;;;;0.10;0.10;;;12.10;99.90;;;;;;5032684;28;20033;-77
2023/03/31 12:41:11;;;;;;;0.10;0.10;;;12.30;99.90;;;;;;5033917;28;20021;-77
2023/03/31 12:43:58;;;;;;;0.10;0.10;;;12.20;99.90;;;;;;5033929;28;20034;-77
2023/03/31 12:46:44;;;;;;;0.10;0.10;;;12.30;99.90;;;;;;5033815;28;20025;-77
2023/03/31 12:49:49;;;;;;;0.10;0.10;;;12.10;99.90;;;;;;5032987;28;20021;-77
2023/03/31 12:53:05;;;;;;;0.10;0.10;;;12.00;99.90;;;;;;5003075;28;20048;-77
2023/03/31 12:55:32;;;;;;;0.13;0.13;;;12.10;99.90;;;;;;5028935;28;20465;-77
2023/03/31 12:58:28;;;;;;;0.10;0.10;;;12.10;99.90;;;;;;5034250;28;20033;-77
2023/03/31 13:01:15;;;;;;;0.10;0.10;;;12.20;99.90;;;;;;5033947;28;20475;-77
2023/03/31 13:04:07;;;;;;;0.10;0.10;;;12.40;99.90;;;;;;5032280;28;20040;-77
2023/03/31 13:06:33;;;;;;;0.10;0.10;;;12.70;99.90;;;;;;5033937;28;20102;-78
2023/03/31 13:09:12;;;;;;;0.10;0.10;;;12.90;99.90;;;;;;5032592;28;20104;-77
2023/03/31 13:11:43;;;;;;;0.10;0.10;;;13.20;99.90;;;;;;5033800;28;20021;-77
2023/03/31 13:14:30;;;;;;;0.10;0.10;;;13.30;99.90;;;;;;5042364;23;20041;-77
2023/03/31 13:17:35;;;;;;;0.10;0.10;;;13.60;99.90;;;;;;5025097;28;20033;-76
2023/03/31 13:20:26;;;;;;;0.10;0.10;;;14.00;99.90;;;;;;5023647;28;20036;-76
2023/03/31 13:23:14;;;;;;;0.10;0.10;;;14.20;99.90;;;;;;5025029;28;20033;-77
2023/03/31 13:25:54;;;;;;;0.13;0.13;;;14.10;99.90;;;;;;5012184;28;20018;-78
2023/03/31 13:28:22;;;;;;;0.03;0.03;;;14.10;99.90;;;;;;5017982;28;20394;-77